createdAt,value
2023-03-30T00:00:45.857Z,93.80
2023-03-30T00:03:13.189Z,94.10
2023-03-30T00:05:43.032Z,94.40
2023-03-30T00:08:10.888Z,94.90
2023-03-30T00:10:38.747Z,94.70
2023-03-30T00:13:06.055Z,95.10
2023-03-30T00:15:33.212Z,95.70
2023-03-30T00:18:01.781Z,95.40
2023-03-30T00:20:29.110Z,95.50
2023-03-30T00:22:56.379Z,95.60
2023-03-30T00:25:23.626Z,95.50
2023-03-30T00:27:50.714Z,95.80
2023-03-30T00:30:18.370Z,96.30
2023-03-30T00:32:46.477Z,96.50
2023-03-30T00:35:15.089Z,97.00
2023-03-30T00:37:45.626Z,97.30
2023-03-30T00:40:15.201Z,97.40
2023-03-30T00:42:42.351Z,97.50
2023-03-30T00:45:24.022Z,97.80
2023-03-30T00:47:53.999Z,98.20
2023-03-30T00:50:23.960Z,98.30
2023-03-30T00:52:52.618Z,98.60
2023-03-30T00:55:24.708Z,98.90
2023-03-30T00:57:52.524Z,99.30
2023-03-30T01:00:19.951Z,99.50
2023-03-30T01:02:49.272Z,99.70
2023-03-30T01:05:16.672Z,99.80
2023-03-30T01:07:46.402Z,99.80
2023-03-30T01:10:13.758Z,99.40
2023-03-30T01:12:41.093Z,99.40
2023-03-30T01:15:08.701Z,99.50
2023-03-30T01:17:42.390Z,99.50
2023-03-30T01:20:10.008Z,99.60
2023-03-30T01:23:03.689Z,99.90
2023-03-30T01:25:50.381Z,99.90
2023-03-30T01:28:20.728Z,99.90
2023-03-30T01:30:47.817Z,99.90
2023-03-30T01:33:32.530Z,99.90
2023-03-30T01:36:03.381Z,99.90
2023-03-30T01:38:39.781Z,99.90
2023-03-30T01:41:14.816Z,99.90
2023-03-30T01:43:41.951Z,99.90
2023-03-30T01:46:13.857Z,99.90
2023-03-30T01:48:47.133Z,99.90
2023-03-30T01:51:20.612Z,99.90
2023-03-30T01:53:53.117Z,99.90
2023-03-30T01:56:29.600Z,99.90
2023-03-30T01:59:22.185Z,99.90
2023-03-30T02:01:50.531Z,99.90
2023-03-30T02:04:19.980Z,99.90
2023-03-30T02:06:54.241Z,99.90
2023-03-30T02:09:23.795Z,99.90
2023-03-30T02:11:56.196Z,99.90
2023-03-30T02:14:26.354Z,99.90
2023-03-30T02:16:56.191Z,99.90
2023-03-30T02:19:23.444Z,99.90
2023-03-30T02:21:50.734Z,99.90
2023-03-30T02:24:22.933Z,99.90
2023-03-30T02:26:51.766Z,99.90
2023-03-30T02:29:20.112Z,99.90
2023-03-30T02:31:48.859Z,99.90
2023-03-30T02:34:18.784Z,99.90
2023-03-30T02:36:51.907Z,99.90
2023-03-30T02:39:40.739Z,99.90
2023-03-30T02:42:27.161Z,99.90
2023-03-30T02:44:57.284Z,99.90
2023-03-30T02:47:30.435Z,99.90
2023-03-30T02:50:00.428Z,99.90
2023-03-30T02:52:34.064Z,99.90
2023-03-30T02:55:20.083Z,99.90
2023-03-30T02:57:55.950Z,99.90
2023-03-30T03:01:05.216Z,99.90
2023-03-30T03:03:46.239Z,99.90
2023-03-30T03:06:15.480Z,99.90
2023-03-30T03:08:48.262Z,99.90
2023-03-30T03:11:23.699Z,99.90
2023-03-30T03:13:50.755Z,99.90
2023-03-30T03:16:18.228Z,99.90
2023-03-30T03:19:05.669Z,99.90
2023-03-30T03:21:32.776Z,99.90
2023-03-30T03:23:59.927Z,99.90
2023-03-30T03:26:41.283Z,99.90
2023-03-30T03:29:08.408Z,99.90
2023-03-30T03:31:35.926Z,99.90
2023-03-30T03:34:03.218Z,99.90
2023-03-30T03:36:52.620Z,99.90
2023-03-30T03:39:20.782Z,99.90
2023-03-30T03:41:50.608Z,99.90
2023-03-30T03:44:17.691Z,99.90
2023-03-30T03:46:44.798Z,99.90
2023-03-30T03:49:11.969Z,99.90
2023-03-30T03:51:39.600Z,99.90
2023-03-30T03:54:06.873Z,99.90
2023-03-30T03:56:34.172Z,99.90
2023-03-30T03:59:03.443Z,99.90
2023-03-30T04:01:31.215Z,99.90
2023-03-30T04:03:58.357Z,99.90
2023-03-30T04:06:27.189Z,99.90
2023-03-30T04:08:54.396Z,99.90
2023-03-30T04:11:28.976Z,99.90
2023-03-30T04:14:07.739Z,99.90
2023-03-30T04:17:00.669Z,99.90
2023-03-30T04:19:54.939Z,99.90
2023-03-30T04:23:01.878Z,99.90
2023-03-30T04:25:49.038Z,99.90
2023-03-30T04:28:24.837Z,99.90
2023-03-30T04:31:02.019Z,99.90
2023-03-30T04:33:53.521Z,99.90
2023-03-30T04:36:45.270Z,99.90
2023-03-30T04:39:33.286Z,99.90
2023-03-30T04:42:32.941Z,99.90
2023-03-30T04:45:21.809Z,99.90
2023-03-30T04:48:24.412Z,99.90
2023-03-30T04:51:22.175Z,99.90
2023-03-30T04:54:18.592Z,99.90
2023-03-30T04:56:45.700Z,99.90
2023-03-30T04:59:21.723Z,99.90
2023-03-30T05:02:07.998Z,99.90
2023-03-30T05:05:03.530Z,99.90
2023-03-30T05:07:48.985Z,99.90
2023-03-30T05:10:49.402Z,99.90
2023-03-30T05:13:50.888Z,99.90
2023-03-30T05:16:40.832Z,99.90
2023-03-30T05:19:14.504Z,99.90
2023-03-30T05:22:04.866Z,99.90
2023-03-30T05:25:04.449Z,99.90
2023-03-30T05:27:49.998Z,99.90
2023-03-30T05:30:24.483Z,99.90
2023-03-30T05:33:21.737Z,99.90
2023-03-30T05:36:17.973Z,99.90
2023-03-30T05:38:58.243Z,99.90
2023-03-30T05:41:43.912Z,99.90
2023-03-30T05:44:35.555Z,99.90
2023-03-30T05:47:22.077Z,99.90
2023-03-30T05:50:15.474Z,99.90
2023-03-30T05:52:54.624Z,99.90
2023-03-30T05:55:56.969Z,99.90
2023-03-30T05:58:42.563Z,99.90
2023-03-30T06:01:33.550Z,99.90
2023-03-30T06:04:01.070Z,99.90
2023-03-30T06:06:28.370Z,99.90
2023-03-30T06:08:55.566Z,99.90
2023-03-30T06:11:24.925Z,99.90
2023-03-30T06:14:01.556Z,99.90
2023-03-30T06:16:29.523Z,99.90
2023-03-30T06:18:57.251Z,99.90
2023-03-30T06:21:24.432Z,99.90
2023-03-30T06:24:11.707Z,99.90
2023-03-30T06:26:43.476Z,99.90
2023-03-30T06:29:10.572Z,99.90
2023-03-30T06:31:40.467Z,99.90
2023-03-30T06:34:27.859Z,99.90
2023-03-30T06:36:55.245Z,99.90
2023-03-30T06:39:25.312Z,99.90
2023-03-30T06:41:52.663Z,99.90
2023-03-30T06:44:42.886Z,99.90
2023-03-30T06:47:14.383Z,99.90
2023-03-30T06:49:41.788Z,99.90
2023-03-30T06:52:27.661Z,99.90
2023-03-30T06:54:54.979Z,99.90
2023-03-30T06:57:22.370Z,99.90
2023-03-30T06:59:49.504Z,99.90
2023-03-30T07:02:48.695Z,99.90
2023-03-30T07:05:32.061Z,99.90
2023-03-30T07:08:08.429Z,99.90
2023-03-30T07:10:38.656Z,99.90
2023-03-30T07:13:08.722Z,99.90
2023-03-30T07:15:37.708Z,99.90
2023-03-30T07:18:05.808Z,99.90
2023-03-30T07:20:32.945Z,99.90
2023-03-30T07:23:14.945Z,99.90
2023-03-30T07:25:42.157Z,99.90
2023-03-30T07:28:16.303Z,99.90
2023-03-30T07:30:44.869Z,99.90
2023-03-30T07:33:12.440Z,99.90
2023-03-30T07:35:46.620Z,99.90
2023-03-30T07:38:16.317Z,99.90
2023-03-30T07:40:49.505Z,99.90
2023-03-30T07:43:17.049Z,99.90
2023-03-30T07:45:44.893Z,99.90
2023-03-30T07:48:18.175Z,99.90
2023-03-30T07:50:48.403Z,99.90
2023-03-30T07:53:15.610Z,99.90
2023-03-30T07:55:44.856Z,99.90
2023-03-30T07:58:18.491Z,99.90
2023-03-30T08:00:47.070Z,99.90
2023-03-30T08:03:45.099Z,99.90
2023-03-30T08:06:12.546Z,99.90
2023-03-30T08:08:41.841Z,99.90
2023-03-30T08:11:11.042Z,99.90
2023-03-30T08:13:38.158Z,99.90
2023-03-30T08:16:06.123Z,99.90
2023-03-30T08:18:33.260Z,99.90
2023-03-30T08:21:00.512Z,99.90
2023-03-30T08:23:27.658Z,99.90
2023-03-30T08:25:58.033Z,99.90
2023-03-30T08:28:25.731Z,99.90
2023-03-30T08:30:53.241Z,99.90
2023-03-30T08:33:20.629Z,99.90
2023-03-30T08:35:48.001Z,99.90
2023-03-30T08:38:19.119Z,99.90
2023-03-30T08:40:47.598Z,99.90
2023-03-30T08:43:17.070Z,99.90
2023-03-30T08:45:44.618Z,99.90
2023-03-30T08:48:15.761Z,99.90
2023-03-30T08:50:46.019Z,99.90
2023-03-30T08:53:13.717Z,99.90
2023-03-30T08:55:49.817Z,99.90
2023-03-30T08:58:22.697Z,99.90
2023-03-30T09:00:52.731Z,99.90
2023-03-30T09:03:37.977Z,99.90
2023-03-30T09:06:10.059Z,99.90
2023-03-30T09:08:37.207Z,99.90
2023-03-30T09:11:09.701Z,99.90
2023-03-30T09:13:38.100Z,99.90
2023-03-30T09:16:11.591Z,99.90
2023-03-30T09:18:39.336Z,99.90
2023-03-30T09:21:10.300Z,99.90
2023-03-30T09:23:37.682Z,99.90
2023-03-30T09:26:23.795Z,99.90
2023-03-30T09:29:00.237Z,99.90
2023-03-30T09:31:32.886Z,99.90
2023-03-30T09:34:04.992Z,99.90
2023-03-30T09:36:45.565Z,99.90
2023-03-30T09:39:18.880Z,99.90
2023-03-30T09:41:48.862Z,99.90
2023-03-30T09:44:39.015Z,99.90
2023-03-30T09:47:19.315Z,99.90
2023-03-30T09:49:47.130Z,99.90
2023-03-30T09:52:21.790Z,99.90
2023-03-30T09:54:48.949Z,99.90
2023-03-30T09:57:24.059Z,99.90
2023-03-30T09:59:52.917Z,99.90
2023-03-30T10:02:21.316Z,99.90
2023-03-30T10:04:52.283Z,99.90
2023-03-30T10:07:22.775Z,99.90
2023-03-30T10:09:49.913Z,99.90
2023-03-30T10:12:17.224Z,99.90
2023-03-30T10:14:44.898Z,99.90
2023-03-30T10:17:23.251Z,99.90
2023-03-30T10:20:03.625Z,99.90
2023-03-30T10:22:48.114Z,99.90
2023-03-30T10:25:18.548Z,99.90
2023-03-30T10:27:45.678Z,99.90
2023-03-30T10:30:18.012Z,99.90
2023-03-30T10:32:46.629Z,99.90
2023-03-30T10:35:17.229Z,99.90
2023-03-30T10:37:46.926Z,99.90
2023-03-30T10:40:27.636Z,99.90
2023-03-30T10:42:55.922Z,99.90
2023-03-30T10:45:27.713Z,99.90
2023-03-30T10:48:00.596Z,99.90
2023-03-30T10:50:41.805Z,99.90
2023-03-30T10:53:17.470Z,99.90
2023-03-30T10:56:07.828Z,99.90
2023-03-30T10:58:37.792Z,99.90
2023-03-30T11:01:23.420Z,99.90
2023-03-30T11:03:58.066Z,99.90
2023-03-30T11:06:28.074Z,99.90
2023-03-30T11:08:57.711Z,99.90
2023-03-30T11:11:32.595Z,99.90
2023-03-30T11:14:02.002Z,99.90
2023-03-30T11:16:38.718Z,99.90
2023-03-30T11:19:17.745Z,99.90
2023-03-30T11:21:58.241Z,99.90
2023-03-30T11:24:26.380Z,99.90
2023-03-30T11:27:03.557Z,99.90
2023-03-30T11:29:37.628Z,99.90
2023-03-30T11:32:14.672Z,99.90
2023-03-30T11:34:54.835Z,99.90
2023-03-30T11:37:27.414Z,99.90
2023-03-30T11:40:02.255Z,99.90
2023-03-30T11:42:32.466Z,99.90
2023-03-30T11:45:00.688Z,99.90
2023-03-30T11:47:33.113Z,99.90
2023-03-30T11:50:11.979Z,99.90
2023-03-30T11:52:48.391Z,99.90
2023-03-30T11:55:19.522Z,99.90
2023-03-30T11:57:56.201Z,99.90
2023-03-30T12:00:26.682Z,99.90
2023-03-30T12:03:01.805Z,99.90
2023-03-30T12:05:34.450Z,99.90
2023-03-30T12:08:25.768Z,99.90
2023-03-30T12:10:59.331Z,99.90
2023-03-30T12:13:32.009Z,99.90
2023-03-30T12:16:08.725Z,99.90
2023-03-30T12:18:54.520Z,99.90
2023-03-30T12:21:24.446Z,99.90
2023-03-30T12:23:54.620Z,99.90
2023-03-30T12:26:24.599Z,99.90
2023-03-30T12:29:32.726Z,99.90
2023-03-30T12:32:05.835Z,99.90
2023-03-30T12:34:38.008Z,99.90
2023-03-30T12:37:23.651Z,99.90
2023-03-30T12:39:53.628Z,99.90
2023-03-30T12:42:37.456Z,99.90
2023-03-30T12:45:11.110Z,99.90
2023-03-30T12:47:38.363Z,99.90
2023-03-30T12:50:13.442Z,99.90
2023-03-30T12:52:43.647Z,99.90
2023-03-30T12:55:17.739Z,99.40
2023-03-30T12:57:56.073Z,99.70
2023-03-30T13:00:47.862Z,98.70
2023-03-30T13:03:24.137Z,98.90
2023-03-30T13:05:53.283Z,98.30
2023-03-30T13:08:20.450Z,98.80
2023-03-30T13:10:47.654Z,98.30
2023-03-30T13:13:21.848Z,98.30
2023-03-30T13:15:51.815Z,98.90
2023-03-30T13:18:45.358Z,98.10
2023-03-30T13:21:17.149Z,97.90
2023-03-30T13:23:45.340Z,97.40
2023-03-30T13:26:24.893Z,96.90
2023-03-30T13:29:01.360Z,96.20
2023-03-30T13:31:37.509Z,96.30
2023-03-30T13:34:13.203Z,96.30
2023-03-30T13:36:51.196Z,95.50
2023-03-30T13:39:18.435Z,95.40
2023-03-30T13:41:51.533Z,94.60
2023-03-30T13:44:39.907Z,94.30
2023-03-30T13:47:06.952Z,94.30
2023-03-30T13:49:42.154Z,94.30
2023-03-30T13:52:12.208Z,94.20
2023-03-30T13:54:40.693Z,93.40
2023-03-30T13:57:12.167Z,93.00
2023-03-30T13:59:49.066Z,93.30
2023-03-30T14:02:18.558Z,93.50
2023-03-30T14:04:46.323Z,93.20
2023-03-30T14:07:21.892Z,93.40
2023-03-30T14:10:06.527Z,93.00
2023-03-30T14:12:34.409Z,93.10
2023-03-30T14:15:02.012Z,93.80
2023-03-30T14:17:29.150Z,94.00
2023-03-30T14:20:07.641Z,94.20
2023-03-30T14:22:42.375Z,94.10
2023-03-30T14:25:25.526Z,94.50
2023-03-30T14:27:53.027Z,94.70
2023-03-30T14:30:21.290Z,95.10
2023-03-30T14:33:04.146Z,95.70
2023-03-30T14:35:34.388Z,96.00
2023-03-30T14:38:13.818Z,96.60
2023-03-30T14:40:44.049Z,96.20
2023-03-30T14:43:19.919Z,96.40
2023-03-30T14:45:47.438Z,97.00
2023-03-30T14:48:27.110Z,97.40
2023-03-30T14:50:54.874Z,97.40
2023-03-30T14:53:26.427Z,97.70
2023-03-30T14:55:57.784Z,97.60
2023-03-30T14:58:26.629Z,97.00
2023-03-30T15:00:55.862Z,96.50
2023-03-30T15:03:32.867Z,96.20
2023-03-30T15:06:01.677Z,95.60
2023-03-30T15:08:31.846Z,95.70
2023-03-30T15:11:01.718Z,95.30
2023-03-30T15:13:43.387Z,95.40
2023-03-30T15:16:14.318Z,95.40
2023-03-30T15:18:41.643Z,95.20
2023-03-30T15:21:09.604Z,95.10
2023-03-30T15:23:40.641Z,94.60
2023-03-30T15:26:08.068Z,95.10
2023-03-30T15:28:46.957Z,95.90
2023-03-30T15:31:15.180Z,96.30
2023-03-30T15:34:05.317Z,96.80
2023-03-30T15:36:40.308Z,97.40
2023-03-30T15:39:21.415Z,97.10
2023-03-30T15:41:58.076Z,97.70
2023-03-30T15:44:25.322Z,98.40
2023-03-30T15:46:54.921Z,98.40
2023-03-30T15:49:24.746Z,99.00
2023-03-30T15:51:53.258Z,98.60
2023-03-30T15:54:26.406Z,98.70
2023-03-30T15:56:56.945Z,98.70
2023-03-30T15:59:27.259Z,98.90
2023-03-30T16:01:58.761Z,99.10
2023-03-30T16:04:25.872Z,99.30
2023-03-30T16:06:53.042Z,99.90
2023-03-30T16:09:20.253Z,99.90
2023-03-30T16:11:47.440Z,99.90
2023-03-30T16:14:16.807Z,99.90
2023-03-30T16:16:44.066Z,99.90
2023-03-30T16:19:16.295Z,99.90
2023-03-30T16:21:45.275Z,99.90
2023-03-30T16:24:12.869Z,99.90
2023-03-30T16:26:39.935Z,99.90
2023-03-30T16:29:14.923Z,99.90
2023-03-30T16:31:41.993Z,99.90
2023-03-30T16:34:09.308Z,99.90
2023-03-30T16:36:36.517Z,99.90
2023-03-30T16:39:05.643Z,99.90
2023-03-30T16:41:32.743Z,99.90
2023-03-30T16:43:59.783Z,99.90
2023-03-30T16:46:27.071Z,99.90
2023-03-30T16:48:54.184Z,99.90
2023-03-30T16:51:21.309Z,99.90
2023-03-30T16:53:48.395Z,99.90
2023-03-30T16:56:17.278Z,99.90
2023-03-30T16:58:45.220Z,99.90
2023-03-30T17:01:13.436Z,99.90
2023-03-30T17:03:40.681Z,99.90
2023-03-30T17:06:08.285Z,99.90
2023-03-30T17:08:35.558Z,99.90
2023-03-30T17:11:07.842Z,99.90
2023-03-30T17:13:35.217Z,99.90
2023-03-30T17:16:02.907Z,99.90
2023-03-30T17:18:30.204Z,99.90
2023-03-30T17:20:57.950Z,99.90
2023-03-30T17:23:27.014Z,99.90
2023-03-30T17:25:54.550Z,99.90
2023-03-30T17:28:23.112Z,99.90
2023-03-30T17:30:51.045Z,99.90
2023-03-30T17:33:18.219Z,99.90
2023-03-30T17:35:47.179Z,99.90
2023-03-30T17:38:14.983Z,99.90
2023-03-30T17:40:44.083Z,99.90
2023-03-30T17:43:11.436Z,99.90
2023-03-30T17:45:38.924Z,99.90
2023-03-30T17:48:07.546Z,99.90
2023-03-30T17:50:35.733Z,99.90
2023-03-30T17:53:02.850Z,99.90
2023-03-30T17:55:33.324Z,99.90
2023-03-30T17:58:00.562Z,99.90
2023-03-30T18:00:29.099Z,99.90
2023-03-30T18:02:59.948Z,99.90
2023-03-30T18:05:28.383Z,99.90
2023-03-30T18:07:55.487Z,99.90
2023-03-30T18:10:36.932Z,99.90
2023-03-30T18:13:04.420Z,99.90
2023-03-30T18:15:32.082Z,99.90
2023-03-30T18:18:00.198Z,99.90
2023-03-30T18:20:32.253Z,99.90
2023-03-30T18:22:59.843Z,99.90
2023-03-30T18:25:32.391Z,99.90
2023-03-30T18:28:00.711Z,99.90
2023-03-30T18:30:37.589Z,99.90
2023-03-30T18:33:05.092Z,99.90
2023-03-30T18:35:34.452Z,99.90
2023-03-30T18:38:02.282Z,99.90
2023-03-30T18:40:34.144Z,99.90
2023-03-30T18:43:01.527Z,99.90
2023-03-30T18:45:34.132Z,99.90
2023-03-30T18:48:01.776Z,99.90
2023-03-30T18:50:49.316Z,99.90
2023-03-30T18:53:20.573Z,99.90
2023-03-30T18:55:52.168Z,99.90
2023-03-30T18:58:20.545Z,99.90
2023-03-30T19:00:48.703Z,99.90
2023-03-30T19:03:16.780Z,99.90
2023-03-30T19:05:44.520Z,99.90
2023-03-30T19:08:15.831Z,99.90
2023-03-30T19:10:43.865Z,99.90
2023-03-30T19:13:15.277Z,99.90
2023-03-30T19:15:42.971Z,99.90
2023-03-30T19:18:10.405Z,99.90
2023-03-30T19:20:41.717Z,99.90
2023-03-30T19:23:13.182Z,99.90
2023-03-30T19:25:41.193Z,99.90
2023-03-30T19:28:09.282Z,99.90
2023-03-30T19:30:39.260Z,99.90
2023-03-30T19:33:08.705Z,99.90
2023-03-30T19:35:36.065Z,99.90
2023-03-30T19:38:03.238Z,99.90
2023-03-30T19:40:30.673Z,99.90
2023-03-30T19:42:57.803Z,99.90
2023-03-30T19:45:25.087Z,99.90
2023-03-30T19:47:54.895Z,99.90
2023-03-30T19:50:24.886Z,99.90
2023-03-30T19:52:52.425Z,99.90
2023-03-30T19:55:20.158Z,99.90
2023-03-30T19:57:47.253Z,99.90
2023-03-30T20:00:15.999Z,99.90
2023-03-30T20:02:44.502Z,99.90
2023-03-30T20:05:13.000Z,99.90
2023-03-30T20:07:40.586Z,99.90
2023-03-30T20:10:08.643Z,99.90
2023-03-30T20:12:35.766Z,99.90
2023-03-30T20:15:05.753Z,99.90
2023-03-30T20:17:34.218Z,99.90
2023-03-30T20:20:07.101Z,99.90
2023-03-30T20:22:35.403Z,99.90
2023-03-30T20:25:02.636Z,99.90
2023-03-30T20:27:29.750Z,99.90
2023-03-30T20:29:56.840Z,99.90
2023-03-30T20:32:23.956Z,99.90
2023-03-30T20:34:51.244Z,99.90
2023-03-30T20:37:18.401Z,99.90
2023-03-30T20:39:47.519Z,99.90
2023-03-30T20:42:17.937Z,99.90
2023-03-30T20:44:50.136Z,99.90
2023-03-30T20:47:17.891Z,99.90
2023-03-30T20:49:46.303Z,99.90
2023-03-30T20:52:13.487Z,99.90
2023-03-30T20:54:44.956Z,99.90
2023-03-30T20:57:12.209Z,99.90
2023-03-30T20:59:39.648Z,99.90
2023-03-30T21:02:07.135Z,99.90
2023-03-30T21:04:34.388Z,99.90
2023-03-30T21:07:01.534Z,99.90
2023-03-30T21:09:29.256Z,99.90
2023-03-30T21:11:56.316Z,99.90
2023-03-30T21:14:24.169Z,99.90
2023-03-30T21:16:51.510Z,99.90
2023-03-30T21:19:18.672Z,99.90
2023-03-30T21:21:46.045Z,99.90
2023-03-30T21:24:13.397Z,99.90
2023-03-30T21:26:40.907Z,99.90
2023-03-30T21:29:08.010Z,99.90
2023-03-30T21:31:35.225Z,99.90
2023-03-30T21:34:02.360Z,99.90
2023-03-30T21:36:29.604Z,99.90
2023-03-30T21:38:58.606Z,99.90
2023-03-30T21:41:26.195Z,99.90
2023-03-30T21:43:53.496Z,99.90
2023-03-30T21:46:21.773Z,99.90
2023-03-30T21:48:51.261Z,99.90
2023-03-30T21:51:21.634Z,99.90
2023-03-30T21:53:50.654Z,99.90
2023-03-30T21:56:18.792Z,99.90
2023-03-30T21:58:45.896Z,99.90
2023-03-30T22:01:13.222Z,99.90
2023-03-30T22:03:41.809Z,99.90
2023-03-30T22:06:10.350Z,99.90
2023-03-30T22:08:37.803Z,99.90
2023-03-30T22:11:06.918Z,99.90
2023-03-30T22:13:34.057Z,99.90
2023-03-30T22:16:05.464Z,99.90
2023-03-30T22:18:33.282Z,99.90
2023-03-30T22:21:01.452Z,99.90
2023-03-30T22:23:28.870Z,99.90
2023-03-30T22:25:56.018Z,99.90
2023-03-30T22:28:23.433Z,99.90
2023-03-30T22:30:51.298Z,99.90
2023-03-30T22:33:18.636Z,99.90
2023-03-30T22:35:46.781Z,99.90
2023-03-30T22:38:14.548Z,99.90
2023-03-30T22:40:44.639Z,99.90
2023-03-30T22:43:12.561Z,99.90
2023-03-30T22:45:41.714Z,99.90
2023-03-30T22:48:08.834Z,99.90
2023-03-30T22:50:36.893Z,99.90
2023-03-30T22:53:04.070Z,99.90
2023-03-30T22:55:31.189Z,99.90
2023-03-30T22:57:58.371Z,99.90
2023-03-30T23:00:28.077Z,99.90
2023-03-30T23:02:55.259Z,99.90
2023-03-30T23:05:22.376Z,99.90
2023-03-30T23:07:50.531Z,99.90
2023-03-30T23:10:18.946Z,99.90
2023-03-30T23:12:46.433Z,99.90
2023-03-30T23:15:13.697Z,99.90
2023-03-30T23:17:41.024Z,99.90
2023-03-30T23:20:10.403Z,99.90
2023-03-30T23:22:38.236Z,99.90
2023-03-30T23:25:06.267Z,99.90
2023-03-30T23:27:36.990Z,99.90
2023-03-30T23:30:04.636Z,99.90
2023-03-30T23:32:32.861Z,99.90
2023-03-30T23:35:00.423Z,99.90
2023-03-30T23:37:30.305Z,99.90
2023-03-30T23:40:02.008Z,99.90
2023-03-30T23:42:29.272Z,99.90
2023-03-30T23:44:56.397Z,99.90
2023-03-30T23:47:23.503Z,99.90
2023-03-30T23:49:50.786Z,99.90
2023-03-30T23:52:17.857Z,99.90
2023-03-30T23:54:44.946Z,99.90
2023-03-30T23:57:12.236Z,99.90
2023-03-30T23:59:39.319Z,99.90
